Pula, Croatia

2:08 PM CET on January 27, 2015 (GMT +0100)
Astronomical observatory Pula | Change Station
CLOSE
Current Station
Personal Weather Station
Location: Pula - Istra, CROATIA
Elevation: 92 ft
Nearby Weather Stations

Elev 92 ft 44.87 °N, 13.85 °E | Updated 4 minutes ago

Clear
Clear
47.7 °F
Feels Like 48 °F
N
1.6
Wind Variable Wind from WNW
Gusts 6.0 mph

Today
High -- | Low -- °F
--% Chance of Precip.
Yesterday
High -- | Low -- °F
Precip. -- in
7:29 AM 5:04 PM
First Quarter, 54% visible
Pressure 29.95 in
Visibility -9999.0 miles
Clouds
Windchill 48 °F
Dew Point 26 °F
Humidity 44%
Rainfall 0.00 in
Snow Depth Not available.
UV Not available.
Pollen Not available.
Air Quality Not available.
Flu Activity Not available.
METAR LDPL 271300Z VRB03KT CAVOK 07/M04 Q1014 NOSIG

More Conditions Fewer Conditions

Pressure 29.95 in
Visibility -9999.0 miles
Clouds
Windchill 48 °F
Dew Point 26 °F
Humidity 44%
Rainfall 0.00 in
Snow Depth Not available.
UV Not available.
Pollen Not available.
Air Quality Not available.
Flu Activity Not available.
METAR LDPL 271300Z VRB03KT CAVOK 07/M04 Q1014 NOSIG

More Conditions Fewer Conditions

10-Day Weather Forecast

Almanac

Astronomy

Jan. 27, 2015 Rise Set
Actual Time
Civil Twilight
Nautical Twilight
Astronomical Twilight
Moon
Length of Visible Light
Length of Day
Tomorrow will be .
, % of the Moon is Illuminated

Today's Extremes

Country Highs Country Lows

Community

WunderPhotos

Upload Photos

1,790,604 photos uploaded!

WunderBlogs® & News

Nearby

Air Quality

  Air Quality AQ Index Pollutant
Not available.

Snow Depth

Station Depth Elevation

Earthquake Activity

City Distance Mag. Time & Date
Minimum magnitude displayed is 2.5.

Coastal Water Temperatures

Place Temperature

Nearby Weather Stations